createdAt,value
2022-12-05T00:01:52.593Z,98.62
2022-12-05T00:06:46.235Z,98.14
2022-12-05T00:11:43.020Z,98.42
2022-12-05T00:16:38.715Z,98.35
2022-12-05T00:21:38.014Z,98.31
2022-12-05T00:26:34.093Z,98.45
2022-12-05T00:31:30.012Z,98.21
2022-12-05T00:36:26.178Z,98.49
2022-12-05T00:41:25.052Z,98.62
2022-12-05T00:46:20.455Z,98.95
2022-12-05T00:51:17.212Z,99.27
2022-12-05T00:56:12.850Z,99.03
2022-12-05T01:01:14.953Z,99.34
2022-12-05T01:06:10.681Z,99.10
2022-12-05T01:11:08.014Z,98.86
2022-12-05T01:16:07.833Z,98.92
2022-12-05T01:21:01.323Z,98.66
2022-12-05T01:25:54.768Z,98.89
2022-12-05T01:30:51.431Z,98.87
2022-12-05T01:35:47.165Z,98.86
2022-12-05T01:40:42.895Z,99.27
2022-12-05T01:45:38.419Z,99.47
2022-12-05T01:50:34.610Z,99.90
2022-12-05T01:55:27.939Z,99.77
2022-12-05T02:00:24.671Z,100.00
2022-12-05T02:05:21.802Z,100.00
2022-12-05T02:10:20.809Z,100.00
2022-12-05T02:15:29.691Z,100.00
2022-12-05T02:20:35.620Z,100.00
2022-12-05T02:26:03.102Z,100.00
2022-12-05T02:31:01.725Z,100.00
2022-12-05T02:36:07.347Z,100.00
2022-12-05T02:41:10.851Z,100.00
2022-12-05T02:46:12.915Z,100.00
2022-12-05T02:51:10.743Z,100.00
2022-12-05T02:56:05.507Z,100.00
2022-12-05T03:00:59.995Z,100.00
2022-12-05T03:06:04.890Z,100.00
2022-12-05T03:11:00.099Z,100.00
2022-12-05T03:16:03.316Z,100.00
2022-12-05T03:21:05.532Z,100.00
2022-12-05T03:26:12.366Z,100.00
2022-12-05T03:31:10.525Z,100.00
2022-12-05T03:36:13.276Z,100.00
2022-12-05T03:41:10.860Z,100.00
2022-12-05T03:46:12.645Z,100.00
2022-12-05T03:51:13.340Z,100.00
2022-12-05T03:56:10.367Z,100.00
2022-12-05T04:01:08.381Z,100.00
2022-12-05T04:06:04.516Z,100.00
2022-12-05T04:11:04.627Z,100.00
2022-12-05T04:16:23.033Z,100.00
2022-12-05T04:21:36.550Z,100.00
2022-12-05T04:26:33.910Z,100.00
2022-12-05T04:31:35.548Z,100.00
2022-12-05T04:36:35.029Z,100.00
2022-12-05T04:41:35.474Z,100.00
2022-12-05T04:46:32.600Z,100.00
2022-12-05T04:51:30.058Z,100.00
2022-12-05T04:56:29.710Z,100.00
2022-12-05T05:01:32.173Z,100.00
2022-12-05T05:06:26.763Z,100.00
2022-12-05T05:11:22.480Z,100.00
2022-12-05T05:16:31.377Z,100.00
2022-12-05T05:21:31.955Z,100.00
2022-12-05T05:26:27.806Z,100.00
2022-12-05T05:36:33.217Z,100.00
2022-12-05T05:41:31.271Z,100.00
2022-12-05T05:46:27.578Z,100.00
2022-12-05T05:51:23.796Z,100.00
2022-12-05T05:56:23.443Z,100.00
2022-12-05T06:01:20.488Z,100.00
2022-12-05T06:06:17.034Z,100.00
2022-12-05T06:11:12.594Z,100.00
2022-12-05T06:16:09.065Z,100.00
2022-12-05T06:21:02.725Z,100.00
2022-12-05T06:25:57.624Z,100.00
2022-12-05T06:30:50.963Z,100.00
2022-12-05T06:35:48.217Z,100.00
2022-12-05T06:40:42.618Z,100.00
2022-12-05T06:45:35.958Z,100.00
2022-12-05T06:50:30.355Z,100.00
2022-12-05T06:55:25.023Z,100.00
2022-12-05T07:00:36.336Z,100.00
2022-12-05T07:05:29.621Z,100.00
2022-12-05T07:10:24.388Z,100.00
2022-12-05T07:15:17.855Z,100.00
2022-12-05T07:20:12.860Z,100.00
2022-12-05T07:25:06.760Z,100.00
2022-12-05T07:30:02.019Z,100.00
2022-12-05T07:34:56.272Z,100.00
2022-12-05T07:39:50.301Z,100.00
2022-12-05T07:44:49.592Z,100.00
2022-12-05T07:49:44.300Z,100.00
2022-12-05T07:54:37.517Z,100.00
2022-12-05T07:59:30.907Z,100.00
2022-12-05T08:04:26.334Z,100.00
2022-12-05T08:09:21.083Z,100.00
2022-12-05T08:14:14.519Z,100.00
2022-12-05T08:19:13.029Z,100.00
2022-12-05T08:24:08.039Z,100.00
2022-12-05T08:29:04.445Z,100.00
2022-12-05T08:33:59.466Z,99.82
2022-12-05T08:38:58.083Z,100.00
2022-12-05T08:43:51.435Z,100.00
2022-12-05T08:48:46.197Z,100.00
2022-12-05T08:53:44.342Z,100.00
2022-12-05T08:58:40.260Z,99.89
2022-12-05T09:03:33.496Z,99.59
2022-12-05T09:08:28.034Z,99.83
2022-12-05T09:13:21.423Z,100.00
2022-12-05T09:18:15.415Z,100.00
2022-12-05T09:23:14.464Z,100.00
2022-12-05T09:28:13.336Z,99.93
2022-12-05T09:33:06.821Z,100.00
2022-12-05T09:38:00.122Z,100.00
2022-12-05T09:43:00.390Z,100.00
2022-12-05T09:48:00.766Z,100.00
2022-12-05T09:53:05.421Z,100.00
2022-12-05T09:58:01.723Z,100.00
2022-12-05T10:03:04.069Z,100.00
2022-12-05T10:08:11.855Z,100.00
2022-12-05T10:13:23.325Z,99.99
2022-12-05T10:18:28.887Z,99.99
2022-12-05T10:23:55.421Z,100.00
2022-12-05T10:28:48.073Z,100.00
2022-12-05T10:33:48.701Z,100.00
2022-12-05T10:38:42.505Z,100.00
2022-12-05T10:43:38.551Z,100.00
2022-12-05T10:48:36.183Z,100.00
2022-12-05T10:53:39.418Z,100.00
2022-12-05T10:58:32.920Z,100.00
2022-12-05T11:03:35.557Z,100.00
2022-12-05T11:09:05.344Z,100.00
2022-12-05T11:13:56.319Z,100.00
2022-12-05T11:18:58.961Z,100.00
2022-12-05T11:23:53.770Z,100.00
2022-12-05T11:28:47.498Z,100.00
2022-12-05T11:33:41.707Z,100.00
2022-12-05T11:38:35.383Z,100.00
2022-12-05T11:43:54.924Z,100.00
2022-12-05T11:49:01.645Z,100.00
2022-12-05T11:54:42.091Z,100.00
2022-12-05T12:00:04.049Z,100.00
2022-12-05T12:05:17.467Z,100.00
2022-12-05T12:10:20.947Z,100.00
2022-12-05T12:15:35.727Z,100.00
2022-12-05T12:20:43.226Z,100.00
2022-12-05T12:25:46.105Z,100.00
2022-12-05T12:30:55.567Z,100.00
2022-12-05T12:35:57.464Z,100.00
2022-12-05T12:40:54.857Z,99.73
2022-12-05T12:46:14.407Z,100.00
2022-12-05T12:51:13.447Z,99.99
2022-12-05T12:56:22.346Z,99.90
2022-12-05T13:01:31.057Z,100.00
2022-12-05T13:06:30.399Z,100.00
2022-12-05T13:11:25.109Z,100.00
2022-12-05T13:16:45.572Z,100.00
2022-12-05T13:21:39.977Z,100.00
2022-12-05T13:26:36.131Z,100.00
2022-12-05T13:31:42.794Z,100.00
2022-12-05T13:36:59.324Z,100.00
2022-12-05T13:42:12.530Z,100.00
2022-12-05T13:47:19.009Z,100.00
2022-12-05T13:52:18.263Z,100.00
2022-12-05T13:57:47.146Z,100.00
2022-12-05T14:02:55.936Z,100.00
2022-12-05T14:07:50.623Z,100.00
2022-12-05T14:12:54.625Z,100.00
2022-12-05T14:17:48.046Z,100.00
2022-12-05T14:23:10.863Z,100.00
2022-12-05T14:28:23.953Z,100.00
2022-12-05T14:33:19.198Z,100.00
2022-12-05T14:38:27.422Z,100.00
2022-12-05T14:43:26.931Z,100.00
2022-12-05T14:48:34.495Z,100.00
2022-12-05T14:53:46.098Z,100.00
2022-12-05T14:58:46.329Z,100.00
2022-12-05T15:03:44.147Z,100.00
2022-12-05T15:08:51.111Z,100.00
2022-12-05T15:13:45.801Z,100.00
2022-12-05T15:18:46.986Z,100.00
2022-12-05T15:24:03.506Z,100.00
2022-12-05T15:29:06.837Z,100.00
2022-12-05T15:34:07.078Z,100.00
2022-12-05T15:39:32.406Z,100.00
2022-12-05T15:44:42.352Z,100.00
2022-12-05T15:49:42.519Z,100.00
2022-12-05T15:54:55.140Z,100.00
2022-12-05T16:00:26.930Z,100.00
2022-12-05T16:05:39.413Z,100.00
2022-12-05T16:10:47.220Z,100.00
2022-12-05T16:16:07.851Z,100.00
2022-12-05T16:21:39.571Z,100.00
2022-12-05T16:26:38.725Z,100.00
2022-12-05T16:31:35.699Z,100.00
2022-12-05T16:36:57.092Z,100.00
2022-12-05T16:41:52.695Z,100.00
2022-12-05T16:46:52.468Z,100.00
2022-12-05T16:52:07.061Z,100.00
2022-12-05T16:57:46.557Z,100.00
2022-12-05T17:02:42.919Z,100.00
2022-12-05T17:07:38.969Z,100.00
2022-12-05T17:12:35.390Z,100.00
2022-12-05T17:17:29.261Z,100.00
2022-12-05T17:22:26.325Z,100.00
2022-12-05T17:27:24.563Z,100.00
2022-12-05T17:32:19.923Z,100.00
2022-12-05T17:37:13.650Z,100.00
2022-12-05T17:42:15.964Z,100.00
2022-12-05T17:47:12.858Z,100.00
2022-12-05T17:52:21.538Z,100.00
2022-12-05T17:57:31.094Z,100.00
2022-12-05T18:02:27.855Z,100.00
2022-12-05T18:07:23.376Z,100.00
2022-12-05T18:12:16.903Z,100.00
2022-12-05T18:17:36.373Z,100.00
2022-12-05T18:22:40.481Z,100.00
2022-12-05T18:27:36.863Z,100.00
2022-12-05T18:32:31.887Z,100.00
2022-12-05T18:37:29.481Z,100.00
2022-12-05T18:42:32.061Z,100.00
2022-12-05T18:47:28.818Z,100.00
2022-12-05T18:52:27.726Z,100.00
2022-12-05T18:57:21.274Z,100.00
2022-12-05T19:02:15.329Z,100.00
2022-12-05T19:07:10.831Z,100.00
2022-12-05T19:12:05.929Z,100.00
2022-12-05T19:17:08.000Z,100.00
2022-12-05T19:22:10.021Z,100.00
2022-12-05T19:27:08.902Z,100.00
2022-12-05T19:32:11.207Z,100.00
2022-12-05T19:37:20.524Z,100.00
2022-12-05T19:42:14.191Z,100.00
2022-12-05T19:47:18.284Z,100.00
2022-12-05T19:52:18.244Z,100.00
2022-12-05T19:57:18.212Z,100.00
2022-12-05T20:02:26.698Z,100.00
2022-12-05T20:07:25.689Z,100.00
2022-12-05T20:12:25.010Z,100.00
2022-12-05T20:17:27.426Z,100.00
2022-12-05T20:22:23.618Z,100.00
2022-12-05T20:27:19.265Z,100.00
2022-12-05T20:32:22.162Z,100.00
2022-12-05T20:37:24.629Z,100.00
2022-12-05T20:42:44.999Z,100.00
2022-12-05T20:47:45.206Z,100.00
2022-12-05T20:52:53.829Z,100.00
2022-12-05T20:58:01.249Z,100.00
2022-12-05T21:02:59.450Z,100.00
2022-12-05T21:07:54.706Z,100.00
2022-12-05T21:12:59.045Z,100.00
2022-12-05T21:17:56.242Z,100.00
2022-12-05T21:22:53.488Z,100.00
2022-12-05T21:27:47.308Z,100.00
2022-12-05T21:32:42.514Z,100.00
2022-12-05T21:37:41.427Z,100.00
2022-12-05T21:42:41.187Z,100.00
2022-12-05T21:47:36.892Z,100.00
2022-12-05T21:52:39.519Z,100.00
2022-12-05T21:57:39.091Z,100.00
2022-12-05T22:02:34.018Z,100.00
2022-12-05T22:07:29.378Z,100.00
2022-12-05T22:12:27.164Z,100.00
2022-12-05T22:17:25.111Z,100.00
2022-12-05T22:22:21.519Z,100.00
2022-12-05T22:27:26.643Z,100.00
2022-12-05T22:32:27.936Z,100.00
2022-12-05T22:37:21.596Z,100.00
2022-12-05T22:42:18.436Z,100.00
2022-12-05T22:47:14.566Z,100.00
2022-12-05T22:52:13.063Z,100.00
2022-12-05T22:57:06.595Z,100.00
2022-12-05T23:02:00.282Z,100.00
2022-12-05T23:06:57.629Z,100.00
2022-12-05T23:11:55.766Z,100.00
2022-12-05T23:16:51.685Z,100.00
2022-12-05T23:21:45.318Z,100.00
2022-12-05T23:26:42.284Z,100.00
2022-12-05T23:31:39.676Z,100.00
2022-12-05T23:36:34.410Z,100.00
2022-12-05T23:41:29.287Z,100.00
2022-12-05T23:46:27.207Z,100.00
2022-12-05T23:51:28.608Z,100.00
2022-12-05T23:56:26.429Z,100.00
